createdAt,value
2019-03-19T00:00:25.332Z,4.11
2019-03-19T00:02:52.387Z,4.19
2019-03-19T00:05:21.040Z,4.18
2019-03-19T00:07:49.815Z,4.20
2019-03-19T00:10:20.064Z,4.11
2019-03-19T00:12:49.144Z,4.07
2019-03-19T00:15:18.226Z,4.04
2019-03-19T00:17:46.893Z,3.96
2019-03-19T00:20:16.238Z,3.96
2019-03-19T00:22:44.764Z,3.92
2019-03-19T00:25:13.375Z,3.95
2019-03-19T00:27:41.914Z,3.96
2019-03-19T00:30:15.439Z,3.98
2019-03-19T00:32:43.873Z,3.96
2019-03-19T00:35:12.353Z,3.89
2019-03-19T00:37:40.846Z,3.96
2019-03-19T00:40:12.309Z,3.92
2019-03-19T00:42:40.779Z,3.86
2019-03-19T00:45:13.387Z,3.95
2019-03-19T00:47:41.917Z,3.93
2019-03-19T00:50:14.270Z,4.02
2019-03-19T00:52:42.959Z,3.96
2019-03-19T00:55:11.816Z,3.99
2019-03-19T00:57:40.364Z,3.99
2019-03-19T01:00:16.965Z,4.07
2019-03-19T01:02:45.473Z,3.98
2019-03-19T01:05:14.304Z,4.01
2019-03-19T01:07:42.891Z,3.88
2019-03-19T01:10:13.648Z,3.85
2019-03-19T01:12:42.197Z,3.85
2019-03-19T01:15:12.402Z,3.90
2019-03-19T01:17:40.960Z,3.88
2019-03-19T01:20:15.028Z,3.93
2019-03-19T01:22:43.556Z,3.87
2019-03-19T01:25:12.134Z,3.86
2019-03-19T01:27:40.725Z,3.89
2019-03-19T01:30:18.059Z,3.84
2019-03-19T01:32:46.494Z,3.81
2019-03-19T01:35:15.334Z,3.86
2019-03-19T01:37:43.923Z,3.93
2019-03-19T01:40:12.963Z,3.90
2019-03-19T01:42:41.477Z,3.86
2019-03-19T01:45:12.275Z,3.88
2019-03-19T01:47:40.905Z,3.86
2019-03-19T01:50:15.972Z,3.95
2019-03-19T01:52:44.544Z,3.99
2019-03-19T01:55:15.968Z,4.01
2019-03-19T01:57:44.501Z,4.03
2019-03-19T02:00:17.970Z,4.07
2019-03-19T02:02:46.501Z,4.04
2019-03-19T02:05:14.939Z,4.16
2019-03-19T02:07:43.568Z,4.26
2019-03-19T02:10:13.242Z,4.30
2019-03-19T02:12:41.765Z,4.32
2019-03-19T02:15:15.092Z,4.24
2019-03-19T02:17:43.665Z,4.18
2019-03-19T02:20:14.006Z,4.15
2019-03-19T02:22:42.591Z,4.20
2019-03-19T02:25:11.327Z,4.21
2019-03-19T02:27:39.882Z,4.15
2019-03-19T02:30:15.663Z,4.19
2019-03-19T02:32:44.202Z,4.24
2019-03-19T02:35:12.916Z,4.22
2019-03-19T02:37:41.356Z,4.19
2019-03-19T02:40:17.621Z,4.17
2019-03-19T02:42:46.157Z,4.04
2019-03-19T02:45:16.214Z,4.05
2019-03-19T02:47:44.767Z,4.02
2019-03-19T02:50:15.358Z,4.03
2019-03-19T02:52:43.801Z,4.09
2019-03-19T02:55:12.334Z,4.07
2019-03-19T02:57:40.792Z,4.06
2019-03-19T03:00:16.347Z,4.05
2019-03-19T03:02:44.985Z,4.06
2019-03-19T03:05:18.392Z,3.95
2019-03-19T03:07:47.018Z,4.04
2019-03-19T03:10:16.058Z,4.09
2019-03-19T03:12:44.552Z,4.11
2019-03-19T03:15:14.025Z,4.11
2019-03-19T03:17:42.652Z,4.08
2019-03-19T03:20:15.361Z,4.02
2019-03-19T03:22:44.007Z,3.79
2019-03-19T03:25:13.879Z,3.84
2019-03-19T03:27:42.727Z,3.81
2019-03-19T03:30:16.993Z,3.79
2019-03-19T03:32:45.882Z,3.82
2019-03-19T03:35:14.586Z,3.80
2019-03-19T03:37:43.196Z,3.78
2019-03-19T03:40:16.418Z,3.80
2019-03-19T03:42:45.059Z,3.76
2019-03-19T03:45:14.970Z,3.76
2019-03-19T03:47:43.509Z,3.73
2019-03-19T03:50:13.464Z,3.76
2019-03-19T03:52:42.052Z,3.81
2019-03-19T03:55:14.427Z,3.86
2019-03-19T03:57:42.935Z,3.89
2019-03-19T04:00:16.159Z,3.93
2019-03-19T04:02:45.009Z,3.75
2019-03-19T04:05:13.613Z,3.80
2019-03-19T04:07:42.237Z,3.76
2019-03-19T04:10:12.617Z,3.81
2019-03-19T04:12:41.172Z,3.91
2019-03-19T04:15:14.286Z,3.97
2019-03-19T04:17:42.838Z,3.87
2019-03-19T04:20:12.747Z,3.84
2019-03-19T04:22:41.259Z,3.82
2019-03-19T04:25:10.903Z,3.85
2019-03-19T04:27:40.590Z,3.83
2019-03-19T04:30:12.646Z,3.87
2019-03-19T04:32:41.235Z,3.92
2019-03-19T04:35:09.827Z,3.90
2019-03-19T04:37:38.364Z,3.92
2019-03-19T04:40:09.700Z,3.89
2019-03-19T04:42:38.125Z,3.88
2019-03-19T04:45:09.017Z,3.83
2019-03-19T04:47:37.547Z,3.80
2019-03-19T04:50:13.698Z,3.82
2019-03-19T04:52:42.468Z,3.85
2019-03-19T04:55:15.456Z,3.88
2019-03-19T04:57:43.973Z,3.85
2019-03-19T05:00:16.251Z,3.87
2019-03-19T05:02:44.775Z,3.76
2019-03-19T05:05:14.834Z,3.79
2019-03-19T05:07:43.333Z,3.72
2019-03-19T05:10:15.462Z,3.74
2019-03-19T05:12:44.199Z,3.72
2019-03-19T05:15:13.060Z,3.72
2019-03-19T05:17:41.592Z,3.70
2019-03-19T05:20:13.551Z,3.71
2019-03-19T05:22:42.135Z,3.79
2019-03-19T05:25:10.968Z,3.76
2019-03-19T05:27:39.682Z,3.64
2019-03-19T05:30:18.186Z,3.69
2019-03-19T05:32:46.701Z,3.69
2019-03-19T05:35:15.291Z,3.59
2019-03-19T05:37:44.127Z,3.69
2019-03-19T05:40:13.603Z,3.73
2019-03-19T05:42:42.171Z,3.74
2019-03-19T05:45:17.071Z,3.77
2019-03-19T05:47:45.597Z,3.84
2019-03-19T05:50:19.179Z,3.86
2019-03-19T05:52:48.704Z,3.89
2019-03-19T05:55:17.480Z,3.87
2019-03-19T05:57:49.891Z,3.91
2019-03-19T06:00:27.085Z,3.94
2019-03-19T06:02:55.614Z,4.01
2019-03-19T06:05:24.160Z,4.08
2019-03-19T06:07:52.631Z,4.08
2019-03-19T06:10:21.158Z,3.98
2019-03-19T06:12:49.716Z,3.99
2019-03-19T06:15:18.172Z,3.97
2019-03-19T06:17:46.644Z,3.92
2019-03-19T06:20:16.618Z,4.00
2019-03-19T06:22:45.218Z,4.05
2019-03-19T06:25:14.061Z,4.09
2019-03-19T06:27:42.592Z,4.09
2019-03-19T06:30:14.188Z,4.16
2019-03-19T06:32:42.780Z,4.27
2019-03-19T06:35:12.231Z,4.27
2019-03-19T06:37:40.700Z,4.31
2019-03-19T06:40:15.022Z,4.30
2019-03-19T06:42:43.655Z,4.30
2019-03-19T06:45:17.510Z,4.32
2019-03-19T06:47:45.962Z,4.37
2019-03-19T06:50:18.331Z,4.51
2019-03-19T06:52:46.928Z,4.62
2019-03-19T06:55:16.370Z,4.72
2019-03-19T06:57:44.874Z,4.82
2019-03-19T07:00:18.292Z,4.94
2019-03-19T07:02:46.828Z,4.93
2019-03-19T07:05:16.527Z,5.10
2019-03-19T07:07:45.157Z,5.22
2019-03-19T07:10:17.325Z,5.21
2019-03-19T07:12:45.948Z,5.17
2019-03-19T07:15:18.206Z,4.95
2019-03-19T07:17:46.714Z,4.90
2019-03-19T07:20:23.009Z,4.97
2019-03-19T07:22:51.487Z,4.98
2019-03-19T07:25:20.452Z,5.10
2019-03-19T07:27:48.943Z,5.11
2019-03-19T07:30:21.531Z,5.18
2019-03-19T07:32:49.980Z,5.15
2019-03-19T07:35:18.541Z,5.23
2019-03-19T07:37:47.096Z,5.30
2019-03-19T07:40:16.411Z,5.42
2019-03-19T07:42:45.134Z,5.33
2019-03-19T07:45:21.422Z,5.41
2019-03-19T07:47:49.960Z,5.39
2019-03-19T07:50:19.861Z,5.44
2019-03-19T07:52:48.445Z,5.74
2019-03-19T07:55:16.935Z,6.36
2019-03-19T07:57:45.462Z,6.56
2019-03-19T08:00:17.054Z,6.75
2019-03-19T08:02:45.678Z,6.78
2019-03-19T08:05:14.221Z,7.03
2019-03-19T08:07:42.889Z,7.15
2019-03-19T08:10:13.880Z,7.57
2019-03-19T08:12:42.648Z,8.11
2019-03-19T08:15:15.912Z,8.30
2019-03-19T08:17:44.425Z,8.29
2019-03-19T08:20:14.240Z,8.75
2019-03-19T08:22:42.700Z,8.81
2019-03-19T08:25:14.314Z,9.15
2019-03-19T08:27:42.922Z,9.25
2019-03-19T08:30:25.145Z,9.27
2019-03-19T08:32:53.825Z,8.84
2019-03-19T08:35:22.617Z,8.39
2019-03-19T08:37:51.150Z,8.32
2019-03-19T08:40:20.275Z,8.37
2019-03-19T08:42:48.796Z,8.48
2019-03-19T08:45:18.993Z,8.61
2019-03-19T08:47:47.517Z,8.65
2019-03-19T08:50:19.740Z,8.66
2019-03-19T08:52:48.408Z,8.73
2019-03-19T08:55:16.997Z,8.58
2019-03-19T08:57:45.530Z,8.44
2019-03-19T09:00:22.191Z,8.47
2019-03-19T09:02:50.642Z,9.23
2019-03-19T09:05:19.150Z,9.76
2019-03-19T09:07:47.675Z,9.74
2019-03-19T09:10:20.114Z,10.06
2019-03-19T09:12:49.049Z,11.16
2019-03-19T09:15:22.646Z,10.93
2019-03-19T09:17:51.243Z,10.31
2019-03-19T09:20:19.651Z,9.70
2019-03-19T09:22:48.246Z,9.44
2019-03-19T09:25:16.661Z,9.44
2019-03-19T09:27:45.870Z,9.93
2019-03-19T09:30:16.390Z,10.97
2019-03-19T09:32:44.894Z,11.72
2019-03-19T09:35:13.963Z,11.32
2019-03-19T09:37:44.894Z,12.21
2019-03-19T09:40:19.826Z,12.67
2019-03-19T09:42:48.458Z,13.17
2019-03-19T09:45:17.683Z,13.54
2019-03-19T09:47:46.602Z,13.43
2019-03-19T09:50:21.190Z,12.06
2019-03-19T09:52:49.746Z,11.68
2019-03-19T09:55:18.401Z,11.20
2019-03-19T09:57:47.176Z,10.68
2019-03-19T10:00:19.189Z,10.29
2019-03-19T10:02:47.665Z,9.95
2019-03-19T10:05:17.269Z,10.03
2019-03-19T10:07:45.884Z,10.10
2019-03-19T10:10:21.246Z,10.33
2019-03-19T10:12:49.692Z,10.35
2019-03-19T10:15:18.520Z,10.72
2019-03-19T10:17:47.531Z,11.10
2019-03-19T10:20:18.385Z,11.52
2019-03-19T10:22:47.071Z,11.25
2019-03-19T10:25:16.422Z,11.07
2019-03-19T10:27:45.067Z,10.92
2019-03-19T10:30:20.940Z,10.57
2019-03-19T10:32:49.428Z,10.57
2019-03-19T10:35:18.379Z,10.08
2019-03-19T10:37:46.913Z,10.98
2019-03-19T10:40:21.869Z,11.71
2019-03-19T10:42:50.359Z,11.71
2019-03-19T10:45:23.906Z,12.76
2019-03-19T10:47:52.531Z,13.50
2019-03-19T10:50:28.322Z,13.53
2019-03-19T10:52:57.073Z,13.75
2019-03-19T10:55:25.679Z,12.74
2019-03-19T10:57:54.196Z,13.13
2019-03-19T11:00:27.042Z,13.69
2019-03-19T11:02:55.513Z,13.16
2019-03-19T11:05:24.686Z,13.21
2019-03-19T11:07:53.516Z,13.44
2019-03-19T11:10:22.058Z,12.69
2019-03-19T11:12:50.734Z,13.19
2019-03-19T11:15:23.830Z,14.44
2019-03-19T11:17:52.631Z,14.86
2019-03-19T11:20:21.347Z,14.23
2019-03-19T11:22:49.924Z,14.29
2019-03-19T11:25:26.435Z,14.58
2019-03-19T11:27:55.006Z,14.47
2019-03-19T11:30:25.028Z,13.72
2019-03-19T11:32:53.575Z,12.68
2019-03-19T11:35:22.087Z,11.86
2019-03-19T11:37:50.719Z,11.30
2019-03-19T11:40:20.320Z,10.22
2019-03-19T11:42:49.054Z,10.22
2019-03-19T11:45:24.585Z,10.04
2019-03-19T11:47:53.160Z,9.88
2019-03-19T11:50:23.153Z,9.92
2019-03-19T11:52:51.951Z,9.87
2019-03-19T11:55:20.863Z,9.83
2019-03-19T11:57:49.723Z,9.59
2019-03-19T12:00:29.699Z,9.73
2019-03-19T12:02:58.310Z,10.20
2019-03-19T12:05:26.960Z,11.76
2019-03-19T12:07:55.577Z,12.93
2019-03-19T12:10:24.488Z,15.18
2019-03-19T12:12:53.038Z,16.17
2019-03-19T12:15:21.634Z,17.65
2019-03-19T12:17:50.285Z,20.01
2019-03-19T12:20:21.022Z,20.66
2019-03-19T12:22:49.127Z,19.32
2019-03-19T12:25:17.756Z,17.54
2019-03-19T12:27:46.310Z,18.00
2019-03-19T12:30:22.508Z,18.18
2019-03-19T12:32:49.469Z,16.92
2019-03-19T12:35:18.858Z,17.29
2019-03-19T12:37:47.392Z,19.93
2019-03-19T12:40:18.965Z,22.29
2019-03-19T12:42:47.499Z,23.57
2019-03-19T12:45:23.835Z,25.04
2019-03-19T12:47:52.300Z,26.10
2019-03-19T12:50:25.691Z,25.08
2019-03-19T12:52:54.332Z,22.06
2019-03-19T12:55:22.991Z,19.58
2019-03-19T12:57:53.615Z,16.87
2019-03-19T13:00:34.475Z,15.15
2019-03-19T13:02:59.310Z,13.68
2019-03-19T13:05:27.929Z,12.32
2019-03-19T13:07:56.508Z,12.24
2019-03-19T13:10:25.404Z,12.43
2019-03-19T13:12:54.007Z,12.74
2019-03-19T13:15:22.644Z,12.49
2019-03-19T13:17:51.378Z,11.97
2019-03-19T13:20:24.164Z,11.72
2019-03-19T13:22:53.018Z,11.22
2019-03-19T13:25:22.229Z,10.82
2019-03-19T13:27:50.886Z,10.51
2019-03-19T13:30:23.531Z,10.30
2019-03-19T13:32:52.122Z,10.24
2019-03-19T13:35:26.673Z,10.50
2019-03-19T13:37:55.365Z,10.58
2019-03-19T13:40:24.233Z,10.72
2019-03-19T13:42:53.117Z,10.90
2019-03-19T13:45:23.126Z,11.37
2019-03-19T13:47:53.463Z,11.73
2019-03-19T13:50:25.141Z,11.67
2019-03-19T13:53:02.012Z,11.61
2019-03-19T13:55:42.363Z,11.15
2019-03-19T13:58:11.405Z,10.96
2019-03-19T14:00:43.420Z,11.02
2019-03-19T14:03:11.160Z,11.33
2019-03-19T14:05:39.734Z,11.40
2019-03-19T14:08:08.319Z,11.51
2019-03-19T14:10:36.931Z,11.54
2019-03-19T14:13:05.591Z,11.46
2019-03-19T14:15:34.177Z,11.62
2019-03-19T14:18:02.892Z,11.49
2019-03-19T14:20:31.615Z,11.35
2019-03-19T14:23:00.174Z,11.61
2019-03-19T14:25:28.791Z,11.65
2019-03-19T14:27:57.634Z,11.46
2019-03-19T14:30:30.658Z,11.25
2019-03-19T14:32:59.167Z,11.01
2019-03-19T14:35:36.887Z,10.78
2019-03-19T14:37:59.919Z,10.65
2019-03-19T14:40:28.464Z,10.64
2019-03-19T14:43:01.007Z,10.49
2019-03-19T14:45:28.023Z,10.43
2019-03-19T14:47:56.633Z,10.70
2019-03-19T14:50:26.082Z,11.00
2019-03-19T14:52:56.735Z,11.24
2019-03-19T14:55:25.092Z,12.37
2019-03-19T14:57:53.575Z,14.35
2019-03-19T15:00:22.894Z,16.12
2019-03-19T15:02:51.410Z,17.58
2019-03-19T15:05:21.851Z,18.61
2019-03-19T15:07:50.344Z,18.85
2019-03-19T15:10:19.895Z,18.82
2019-03-19T15:12:48.512Z,17.30
2019-03-19T15:15:21.461Z,14.98
2019-03-19T15:17:50.025Z,13.68
2019-03-19T15:20:23.152Z,12.88
2019-03-19T15:22:53.803Z,12.08
2019-03-19T15:25:22.276Z,11.63
2019-03-19T15:28:05.716Z,11.10
2019-03-19T15:30:34.113Z,10.92
2019-03-19T15:33:04.415Z,10.61
2019-03-19T15:35:52.024Z,10.48
2019-03-19T15:38:20.929Z,10.30
2019-03-19T15:40:49.423Z,10.08
2019-03-19T15:43:18.060Z,9.90
2019-03-19T15:45:46.475Z,9.80
2019-03-19T15:48:14.913Z,9.73
2019-03-19T15:50:44.750Z,9.65
2019-03-19T15:53:18.334Z,9.54
2019-03-19T15:55:47.157Z,9.61
2019-03-19T15:58:16.448Z,9.60
2019-03-19T16:00:45.034Z,9.54
2019-03-19T16:03:13.536Z,9.48
2019-03-19T16:05:45.289Z,9.54
2019-03-19T16:08:13.798Z,9.49
2019-03-19T16:10:42.312Z,9.51
2019-03-19T16:13:10.792Z,9.55
2019-03-19T16:15:39.371Z,9.34
2019-03-19T16:18:07.919Z,9.35
2019-03-19T16:20:37.189Z,9.41
2019-03-19T16:23:06.027Z,9.42
2019-03-19T16:25:34.623Z,9.27
2019-03-19T16:28:03.155Z,9.21
2019-03-19T16:30:31.867Z,9.23
2019-03-19T16:33:01.957Z,9.21
2019-03-19T16:35:31.527Z,9.25
2019-03-19T16:38:06.445Z,9.26
2019-03-19T16:40:35.892Z,9.06
2019-03-19T16:43:08.890Z,9.07
2019-03-19T16:45:38.620Z,9.04
2019-03-19T16:48:08.210Z,9.03
2019-03-19T16:50:37.219Z,8.91
2019-03-19T16:53:05.801Z,8.81
2019-03-19T16:55:34.370Z,8.78
2019-03-19T16:58:19.366Z,8.76
2019-03-19T17:00:49.685Z,8.71
2019-03-19T17:03:20.017Z,8.64
2019-03-19T17:05:48.629Z,8.59
2019-03-19T17:08:17.503Z,8.52
2019-03-19T17:10:46.237Z,8.44
2019-03-19T17:13:15.513Z,8.40
2019-03-19T17:15:45.200Z,8.37
2019-03-19T17:18:13.695Z,8.30
2019-03-19T17:20:42.346Z,8.16
2019-03-19T17:23:10.918Z,8.14
2019-03-19T17:25:43.805Z,8.12
2019-03-19T17:28:22.165Z,8.10
2019-03-19T17:30:42.688Z,8.00
2019-03-19T17:33:11.273Z,7.93
2019-03-19T17:35:39.878Z,7.91
2019-03-19T17:38:09.044Z,7.91
2019-03-19T17:40:41.594Z,7.89
2019-03-19T17:43:08.031Z,7.86
2019-03-19T17:45:36.575Z,7.88
2019-03-19T17:48:16.420Z,7.86
2019-03-19T17:50:45.692Z,7.83
2019-03-19T17:53:14.295Z,7.80
2019-03-19T17:55:42.800Z,7.70
2019-03-19T17:58:11.520Z,7.69
2019-03-19T18:00:44.692Z,7.67
2019-03-19T18:03:13.339Z,7.65
2019-03-19T18:05:41.945Z,7.64
2019-03-19T18:08:10.513Z,7.61
2019-03-19T18:10:39.111Z,7.60
2019-03-19T18:13:07.937Z,7.59
2019-03-19T18:15:36.493Z,7.56
2019-03-19T18:18:05.355Z,7.52
2019-03-19T18:20:34.020Z,7.52
2019-03-19T18:23:02.455Z,7.50
2019-03-19T18:25:30.988Z,7.45
2019-03-19T18:28:05.571Z,7.43
2019-03-19T18:30:34.211Z,7.43
2019-03-19T18:33:02.752Z,7.40
2019-03-19T18:35:31.145Z,7.33
2019-03-19T18:37:59.569Z,7.26
2019-03-19T18:40:28.192Z,7.22
2019-03-19T18:42:56.845Z,7.21
2019-03-19T18:45:25.410Z,7.18
2019-03-19T18:47:54.054Z,7.14
2019-03-19T18:50:23.586Z,7.15
2019-03-19T18:52:52.172Z,7.15
2019-03-19T18:55:20.860Z,7.11
2019-03-19T18:57:49.526Z,7.10
2019-03-19T19:00:18.890Z,7.12
2019-03-19T19:02:50.298Z,7.04
2019-03-19T19:05:18.944Z,6.99
2019-03-19T19:07:47.784Z,6.95
2019-03-19T19:10:17.147Z,6.92
2019-03-19T19:12:45.728Z,6.91
2019-03-19T19:15:22.471Z,6.91
2019-03-19T19:17:50.929Z,6.89
2019-03-19T19:20:20.014Z,6.86
2019-03-19T19:22:48.679Z,6.86
2019-03-19T19:25:21.627Z,6.85
2019-03-19T19:27:50.187Z,6.83
2019-03-19T19:30:20.667Z,6.79
2019-03-19T19:33:00.508Z,6.78
2019-03-19T19:35:19.678Z,6.75
2019-03-19T19:37:48.351Z,6.72
2019-03-19T19:40:17.508Z,6.71
2019-03-19T19:42:46.334Z,6.68
2019-03-19T19:45:15.909Z,6.66
2019-03-19T19:47:44.538Z,6.67
2019-03-19T19:50:17.767Z,6.65
2019-03-19T19:52:46.331Z,6.62
2019-03-19T19:55:15.438Z,6.61
2019-03-19T19:57:44.325Z,6.57
2019-03-19T20:00:16.060Z,6.55
2019-03-19T20:02:45.100Z,6.54
2019-03-19T20:05:13.920Z,6.51
2019-03-19T20:07:42.823Z,6.52
2019-03-19T20:10:24.844Z,6.47
2019-03-19T20:12:53.417Z,6.46
2019-03-19T20:15:22.011Z,6.44
2019-03-19T20:17:50.635Z,6.42
2019-03-19T20:20:21.674Z,6.39
2019-03-19T20:22:50.186Z,6.40
2019-03-19T20:25:18.973Z,6.40
2019-03-19T20:27:48.463Z,6.37
2019-03-19T20:30:21.157Z,6.30
2019-03-19T20:32:49.655Z,6.28
2019-03-19T20:35:18.295Z,6.28
2019-03-19T20:37:46.845Z,6.25
2019-03-19T20:40:16.151Z,6.21
2019-03-19T20:42:44.878Z,6.21
2019-03-19T20:45:18.390Z,6.19
2019-03-19T20:47:47.445Z,6.16
2019-03-19T20:50:27.036Z,6.15
2019-03-19T20:52:55.876Z,6.17
2019-03-19T20:55:25.264Z,6.16
2019-03-19T20:57:53.945Z,6.04
2019-03-19T21:00:22.935Z,6.02
2019-03-19T21:02:51.527Z,5.98
2019-03-19T21:05:20.148Z,5.96
2019-03-19T21:07:48.756Z,5.99
2019-03-19T21:10:24.590Z,5.97
2019-03-19T21:12:53.444Z,5.96
2019-03-19T21:15:28.676Z,5.93
2019-03-19T21:17:57.329Z,5.89
2019-03-19T21:20:26.177Z,5.91
2019-03-19T21:22:54.765Z,5.91
2019-03-19T21:25:23.339Z,5.84
2019-03-19T21:27:51.997Z,5.84
2019-03-19T21:30:24.325Z,5.85
2019-03-19T21:32:53.691Z,5.88
2019-03-19T21:35:24.863Z,5.82
2019-03-19T21:37:53.452Z,5.78
2019-03-19T21:40:21.961Z,5.75
2019-03-19T21:42:50.572Z,5.74
2019-03-19T21:45:22.738Z,5.73
2019-03-19T21:47:51.263Z,5.70
2019-03-19T21:50:22.926Z,5.71
2019-03-19T21:52:51.358Z,5.66
2019-03-19T21:55:19.952Z,5.60
2019-03-19T21:57:48.939Z,5.58
2019-03-19T22:00:21.752Z,5.60
2019-03-19T22:02:50.370Z,5.58
2019-03-19T22:05:18.938Z,5.56
2019-03-19T22:07:47.575Z,5.57
2019-03-19T22:10:21.160Z,5.55
2019-03-19T22:12:49.897Z,5.55
2019-03-19T22:15:19.922Z,5.51
2019-03-19T22:17:48.455Z,5.49
2019-03-19T22:20:17.042Z,5.47
2019-03-19T22:22:45.542Z,5.42
2019-03-19T22:25:15.816Z,5.38
2019-03-19T22:27:44.440Z,5.37
2019-03-19T22:30:19.817Z,5.36
2019-03-19T22:32:48.337Z,5.35
2019-03-19T22:35:17.188Z,5.37
2019-03-19T22:37:45.772Z,5.35
2019-03-19T22:40:15.450Z,5.32
2019-03-19T22:42:44.127Z,5.29
2019-03-19T22:45:17.467Z,5.25
2019-03-19T22:47:47.699Z,5.24
2019-03-19T22:50:19.406Z,5.22
2019-03-19T22:52:48.212Z,5.21
2019-03-19T22:55:28.161Z,5.19
2019-03-19T22:57:47.264Z,5.17
2019-03-19T23:00:31.910Z,5.16
2019-03-19T23:03:00.501Z,5.15
2019-03-19T23:05:29.032Z,5.12
2019-03-19T23:07:57.612Z,5.11
2019-03-19T23:10:26.210Z,5.08
2019-03-19T23:12:54.736Z,5.05
2019-03-19T23:15:23.355Z,5.04
2019-03-19T23:17:52.165Z,5.01
2019-03-19T23:20:20.829Z,5.02
2019-03-19T23:22:49.449Z,5.00
2019-03-19T23:25:18.040Z,4.97
2019-03-19T23:27:46.619Z,4.94
2019-03-19T23:30:22.985Z,4.96
2019-03-19T23:32:51.463Z,4.94
2019-03-19T23:35:20.064Z,4.92
2019-03-19T23:37:48.496Z,4.91
2019-03-19T23:40:20.542Z,4.88
2019-03-19T23:42:49.117Z,4.87
2019-03-19T23:45:18.018Z,4.88
2019-03-19T23:47:46.530Z,4.85
2019-03-19T23:50:16.040Z,4.84
2019-03-19T23:52:44.579Z,4.86
2019-03-19T23:55:14.960Z,4.84
2019-03-19T23:57:43.637Z,4.85
